Alexandria, Indiana
Current Conditions -  °F | °C
As of 12:53 AM on Friday 28 Nov 2014 (Local Time) from KMIE Reporting Station
Broken Clouds Broken Clouds  
Wind Chill: 16°   Ceiling: 3800
Heat Index: 22°   Visibility: 10mi
Dew Point: 16°   Wind: 5mph
Humidity: 78%   Direction: 300°WNW
Pressure: 30.36"   Gusts: NA
Location:  40.26°N, 85.67°W
Report Text: KMIE 280553Z AUTO 30004KT 10SM BKN038 M06/M09 A3036 RMK AO2 SLP290 60000 T10561089 11033 21056 58002
Loading
Personal Weather Stations






























Interactive Weather Map New forecast layout! Learn more

10-Day Weather Forecast

Advertisements
Track Severe Weather on mobile